aviador You're here:

LFBE Decoded Metar

BERGERAC in FRANCE
Report Time2018-01-21 08:00:00
UTC Time2018-01-21 08:36:06
Flight Rules ifr IFR
Wind270° at 10 kt
W.Decomp.*RWY 28: 9.8 kt HW 1.7 kt LCW
W.Rank270° ranks 1
Current wind is above 270° avg. (6.7)
Visibility6000 m
Phenomena:Light Drizzle
Clouds:Overcast 005 Hf
Ceiling500 ft
Temp12°C (ISA -3)
Dew Point12°C (100% RH)
AAT9.0°C
QNH1021 hPa
Density Alt-230 ft
Elevation171 ft
Report Wrong Elevation
Raw Report
LFBE 210800Z AUTO 27010KT 6000 -DZ OVC005 12/12 Q1021 TEMPO
28015G25KT 2500 DZRA=

Extra information for LFBE:More info

Metar Taf Metar & Taf Last 4 Metars F.Rules Stats Wind Profile Meteogram Temp Stats Airport Information Weather charts Add Link Nearby VenuesMetar ALERT Operation Metar Decoded Social comments